Deer Park, Missouri
Current Conditions -  °F | °C
As of 8:56 AM on Friday 19 Dec 2014 (Local Time) from KCOU Reporting Station
Haze Haze  
Wind Chill: 33°   Ceiling: 5000
Heat Index: 33°   Visibility: 5mi
Dew Point: 30°   Wind: 3mph
Humidity: 89%   Direction: 70°ENE
Pressure: 30.29"   Gusts: NA
Location:  38.8994°N, 92.2391°W
Report Text: KCOU 191456Z 07003KT 5SM BR FEW005 OVC050 01/M01 A3029 RMK AO2 T00061011
Loading
Personal Weather Stations






























Interactive Weather Map New forecast layout! Learn more

10-Day Weather Forecast

Advertisements
Track Severe Weather on mobile